Time;durP1;ratioP1;P1;durP2;ratioP2;P2;SDS_P1;SDS_P2;PMS_P1;PMS_P2;Temp;Humidity;BMP_temperature;BMP_pressure;BME280_temperature;BME280_humidity;BME280_pressure;Samples;Min_cycle;Max_cycle;Signal;HPM_P1;HPM_P2
2022/01/08 00:00:15;;;;;;;3.47;1.10;;;15.50;49.40;;;;;;5094203;28;20019;-63
2022/01/08 00:02:44;;;;;;;2.22;1.02;;;15.50;49.40;;;;;;5093925;28;20008;-64
2022/01/08 00:05:10;;;;;;;1.52;0.90;;;15.50;49.40;;;;;;5093472;28;20027;-64
2022/01/08 00:07:37;;;;;;;2.70;1.50;;;15.50;49.40;;;;;;5092377;28;20020;-63
2022/01/08 00:10:04;;;;;;;3.20;1.35;;;15.50;49.30;;;;;;5093469;28;20039;-63
2022/01/08 00:12:31;;;;;;;1.65;1.17;;;15.70;49.00;;;;;;5093590;28;20012;-64
2022/01/08 00:14:56;;;;;;;1.65;1.08;;;15.70;48.80;;;;;;5093582;28;20020;-65
2022/01/08 00:17:23;;;;;;;1.33;0.75;;;15.80;48.70;;;;;;5093145;28;20565;-64
2022/01/08 00:19:52;;;;;;;2.70;1.00;;;15.90;48.50;;;;;;5093547;28;20004;-63
2022/01/08 00:22:18;;;;;;;2.03;0.98;;;15.90;48.40;;;;;;5093285;28;20079;-63
2022/01/08 00:24:45;;;;;;;1.83;1.00;;;16.00;48.30;;;;;;5096309;28;20044;-64
2022/01/08 00:27:11;;;;;;;1.52;0.90;;;16.10;48.10;;;;;;5096777;28;20055;-64
2022/01/08 00:29:37;;;;;;;1.42;1.00;;;16.10;48.00;;;;;;5097095;28;20048;-63
2022/01/08 00:32:04;;;;;;;1.83;1.00;;;16.20;47.70;;;;;;5096654;28;20500;-63
2022/01/08 00:34:31;;;;;;;1.90;1.10;;;16.30;47.60;;;;;;5096876;28;20059;-63
2022/01/08 00:36:58;;;;;;;1.75;1.10;;;16.40;47.30;;;;;;5097054;28;20032;-63
2022/01/08 00:39:25;;;;;;;2.50;1.10;;;16.50;47.10;;;;;;5096591;28;20028;-64
2022/01/08 00:41:51;;;;;;;2.90;1.30;;;16.50;46.90;;;;;;5095865;28;20100;-63
2022/01/08 00:44:18;;;;;;;1.73;1.10;;;16.60;46.80;;;;;;5098973;28;20016;-63
2022/01/08 00:46:44;;;;;;;2.05;1.10;;;16.70;46.60;;;;;;5097105;28;20024;-63
2022/01/08 00:49:10;;;;;;;1.67;0.95;;;16.80;46.50;;;;;;5095655;28;20019;-64
2022/01/08 00:51:36;;;;;;;2.40;1.20;;;16.80;46.40;;;;;;5096623;28;20436;-64
2022/01/08 00:54:03;;;;;;;1.83;1.02;;;16.80;46.10;;;;;;5096298;28;20028;-63
2022/01/08 00:56:30;;;;;;;1.25;0.90;;;16.90;46.10;;;;;;5096263;28;20109;-63
2022/01/08 00:58:57;;;;;;;1.73;1.00;;;16.90;46.00;;;;;;5096047;28;20012;-62
2022/01/08 01:01:22;;;;;;;2.22;1.23;;;17.00;45.90;;;;;;5096429;28;20119;-65
2022/01/08 01:03:49;;;;;;;1.50;0.85;;;17.00;45.80;;;;;;5096179;28;20020;-65
2022/01/08 01:06:16;;;;;;;2.17;0.98;;;17.00;45.70;;;;;;5095733;28;20050;-65
2022/01/08 01:08:43;;;;;;;1.60;1.10;;;17.10;45.60;;;;;;5095748;28;20052;-63
2022/01/08 01:11:09;;;;;;;1.95;1.00;;;17.10;45.50;;;;;;5096020;28;20012;-63
2022/01/08 01:13:36;;;;;;;1.55;1.00;;;17.20;45.50;;;;;;5095904;28;20035;-63
2022/01/08 01:16:03;;;;;;;1.48;0.98;;;17.20;45.30;;;;;;5095842;28;20028;-63
2022/01/08 01:18:29;;;;;;;2.15;0.93;;;17.20;45.30;;;;;;5095638;28;20021;-62
2022/01/08 01:20:57;;;;;;;1.52;1.00;;;17.30;45.30;;;;;;5095817;28;20016;-62
2022/01/08 01:23:31;;;;;;;1.77;1.05;;;17.30;45.10;;;;;;5094252;28;20004;-62
2022/01/08 01:26:01;;;;;;;1.65;1.08;;;17.30;45.10;;;;;;5095673;28;20119;-62
2022/01/08 01:41:11;;;;;;;1.88;0.90;;;17.40;45.00;;;;;;5095331;28;20020;-62
2022/01/08 01:47:12;;;;;;;1.55;1.00;;;17.50;44.90;;;;;;5095141;28;20027;-62
2022/01/08 01:49:46;;;;;;;1.50;0.90;;;17.50;44.80;;;;;;5095557;28;20029;-63
2022/01/08 01:52:14;;;;;;;2.08;0.80;;;17.50;44.70;;;;;;5095307;28;20019;-62
2022/01/08 01:54:40;;;;;;;2.05;0.90;;;17.60;44.70;;;;;;5095359;28;20020;-62
2022/01/08 01:57:07;;;;;;;1.10;0.80;;;17.60;44.70;;;;;;5095711;28;20047;-62
2022/01/08 01:59:36;;;;;;;1.45;0.90;;;17.50;44.60;;;;;;5094953;28;20466;-62
2022/01/08 02:02:02;;;;;;;2.28;1.20;;;17.60;44.70;;;;;;5095453;28;20012;-62
2022/01/08 02:04:29;;;;;;;2.10;1.08;;;17.60;44.70;;;;;;5095311;28;20028;-62
2022/01/08 02:06:55;;;;;;;2.92;1.10;;;17.60;44.70;;;;;;5095005;28;20020;-62
2022/01/08 02:09:22;;;;;;;2.08;1.08;;;17.70;45.20;;;;;;5094942;28;20063;-62
2022/01/08 02:12:08;;;;;;;2.78;1.20;;;17.70;44.60;;;;;;5094963;28;20031;-62
2022/01/08 02:14:35;;;;;;;1.25;0.88;;;17.70;44.60;;;;;;5094607;28;20363;-62
2022/01/08 02:17:08;;;;;;;1.55;0.85;;;17.70;44.60;;;;;;5094770;28;20024;-63
2022/01/08 02:19:35;;;;;;;1.38;0.93;;;17.70;44.60;;;;;;5094755;28;20040;-62
2022/01/08 02:22:02;;;;;;;1.48;0.80;;;17.70;44.60;;;;;;5094569;28;20466;-62
2022/01/08 02:24:28;;;;;;;1.55;1.00;;;17.70;44.60;;;;;;5095838;28;20073;-63
2022/01/08 02:26:54;;;;;;;1.92;1.25;;;17.70;44.50;;;;;;5096055;28;20110;-62
2022/01/08 02:29:21;;;;;;;1.10;0.88;;;17.70;44.50;;;;;;5095412;28;20437;-62
2022/01/08 02:32:01;;;;;;;1.55;0.88;;;17.70;44.40;;;;;;5095208;28;20012;-62
2022/01/08 02:34:27;;;;;;;1.15;0.85;;;17.70;44.50;;;;;;5095149;28;20022;-62
2022/01/08 02:36:54;;;;;;;1.77;0.90;;;17.70;44.40;;;;;;5095113;28;20027;-62
2022/01/08 02:39:20;;;;;;;1.50;0.82;;;17.70;44.50;;;;;;5095386;28;20020;-61
2022/01/08 02:41:46;;;;;;;1.63;1.10;;;17.70;44.40;;;;;;5095372;28;20013;-63
2022/01/08 02:44:12;;;;;;;2.25;1.02;;;17.80;44.40;;;;;;5094979;28;20022;-64
2022/01/08 02:46:41;;;;;;;1.85;1.13;;;17.80;44.40;;;;;;5092417;28;20050;-63
2022/01/08 02:49:07;;;;;;;1.88;0.93;;;17.80;44.40;;;;;;5093939;28;20052;-64
2022/01/08 02:51:34;;;;;;;4.07;1.00;;;17.80;44.40;;;;;;5094085;28;20043;-62
2022/01/08 02:54:00;;;;;;;2.58;0.93;;;17.80;44.50;;;;;;5094152;28;20023;-63
2022/01/08 02:56:26;;;;;;;1.20;0.82;;;17.80;44.40;;;;;;5093748;28;20352;-63
2022/01/08 02:58:53;;;;;;;1.85;1.00;;;17.80;44.40;;;;;;5094064;28;20032;-63
2022/01/08 03:01:20;;;;;;;1.65;1.10;;;17.80;44.40;;;;;;5093739;28;20352;-63
2022/01/08 03:03:45;;;;;;;2.00;1.08;;;17.80;44.40;;;;;;5092514;28;20011;-63
2022/01/08 03:06:11;;;;;;;1.67;0.90;;;17.80;44.30;;;;;;5093992;28;20142;-64
2022/01/08 03:08:38;;;;;;;3.70;0.93;;;17.80;44.30;;;;;;5093627;28;20036;-63
2022/01/08 03:11:04;;;;;;;1.20;0.82;;;17.90;44.30;;;;;;5093817;28;20118;-63
2022/01/08 03:13:31;;;;;;;1.63;0.80;;;17.90;44.30;;;;;;5093600;28;20482;-63
2022/01/08 03:15:57;;;;;;;1.42;0.90;;;17.90;44.20;;;;;;5093983;28;20016;-63
2022/01/08 03:18:22;;;;;;;1.55;0.90;;;17.90;44.20;;;;;;5093429;28;20023;-63
2022/01/08 03:20:53;;;;;;;1.27;0.98;;;17.90;44.20;;;;;;5093574;28;20008;-63
2022/01/08 03:23:20;;;;;;;1.30;0.80;;;17.90;44.20;;;;;;5093915;28;20024;-63
2022/01/08 03:25:46;;;;;;;1.48;1.00;;;18.00;44.30;;;;;;5093771;28;20038;-64
2022/01/08 03:28:13;;;;;;;3.38;0.77;;;17.90;44.10;;;;;;5092158;28;20016;-63
2022/01/08 03:30:39;;;;;;;1.88;0.90;;;18.00;44.20;;;;;;5093696;28;20103;-63
2022/01/08 03:33:05;;;;;;;1.45;0.77;;;17.90;44.10;;;;;;5093703;28;20019;-63
2022/01/08 03:35:31;;;;;;;1.17;0.73;;;17.90;44.20;;;;;;5092162;28;20460;-63
2022/01/08 03:37:56;;;;;;;1.73;0.90;;;17.90;44.20;;;;;;5093622;28;20028;-63
2022/01/08 03:40:22;;;;;;;1.75;0.90;;;17.90;44.20;;;;;;5093330;28;20012;-63
2022/01/08 03:42:49;;;;;;;1.42;0.90;;;18.00;44.20;;;;;;5092025;28;20070;-65
2022/01/08 03:45:15;;;;;;;1.60;0.95;;;17.90;44.10;;;;;;5093611;28;20028;-66
2022/01/08 03:50:13;;;;;;;1.38;0.93;;;17.90;44.20;;;;;;5094095;28;20089;-65
2022/01/08 03:52:39;;;;;;;2.70;1.00;;;17.90;44.30;;;;;;5094019;28;20055;-65
2022/01/08 03:55:05;;;;;;;1.20;0.80;;;17.90;44.30;;;;;;5059172;28;20016;-65
2022/01/08 03:57:32;;;;;;;0.95;0.70;;;17.90;44.30;;;;;;5093855;28;20054;-65
2022/01/08 03:59:58;;;;;;;1.52;0.95;;;17.90;44.30;;;;;;5096294;28;20017;-65
2022/01/08 04:02:24;;;;;;;1.67;0.90;;;18.00;44.30;;;;;;5098062;28;20000;-64
2022/01/08 04:04:51;;;;;;;1.50;0.80;;;18.00;44.30;;;;;;5098776;28;20027;-65
2022/01/08 04:07:17;;;;;;;2.00;1.05;;;18.00;44.20;;;;;;5098059;28;20382;-65
2022/01/08 04:09:45;;;;;;;2.08;0.90;;;18.00;44.20;;;;;;5097761;28;20036;-65
2022/01/08 04:12:16;;;;;;;1.42;1.00;;;18.00;44.20;;;;;;5098058;28;20016;-65
2022/01/08 04:14:52;;;;;;;1.33;0.80;;;18.00;44.10;;;;;;5097998;28;20028;-64
2022/01/08 04:17:18;;;;;;;1.67;0.80;;;18.00;44.10;;;;;;5098054;28;20063;-64
2022/01/08 04:19:44;;;;;;;1.85;1.13;;;18.00;44.00;;;;;;5097776;28;20016;-64
2022/01/08 04:22:12;;;;;;;1.50;0.98;;;18.00;44.00;;;;;;5097493;28;20481;-65
2022/01/08 04:24:39;;;;;;;0.80;0.70;;;18.00;44.00;;;;;;5097455;28;20035;-65
2022/01/08 04:27:05;;;;;;;1.77;1.00;;;18.10;44.10;;;;;;5095944;28;20020;-65
2022/01/08 04:29:31;;;;;;;1.35;0.77;;;18.10;44.10;;;;;;5097469;28;20103;-65
2022/01/08 04:31:58;;;;;;;1.23;0.90;;;18.10;44.10;;;;;;5097412;28;20032;-65
2022/01/08 04:34:26;;;;;;;1.05;0.77;;;18.10;44.10;;;;;;5096807;28;20535;-65
2022/01/08 04:36:51;;;;;;;1.00;0.70;;;18.00;43.90;;;;;;5097011;28;20035;-65
2022/01/08 04:39:18;;;;;;;1.60;0.80;;;18.10;43.90;;;;;;5097180;28;20020;-66
2022/01/08 04:41:47;;;;;;;2.13;0.80;;;18.10;44.00;;;;;;5097067;28;20016;-65
2022/01/08 04:44:14;;;;;;;1.10;0.80;;;18.10;44.00;;;;;;5096751;28;20084;-66
2022/01/08 04:46:41;;;;;;;1.30;0.60;;;18.10;44.00;;;;;;5096827;28;20020;-64
2022/01/08 04:49:07;;;;;;;1.50;0.68;;;18.10;43.90;;;;;;5096852;28;20097;-65
2022/01/08 04:51:33;;;;;;;1.25;0.70;;;18.20;43.90;;;;;;5096658;28;20012;-65
2022/01/08 04:53:59;;;;;;;1.50;0.80;;;18.10;43.80;;;;;;5095152;28;20016;-65
2022/01/08 04:56:25;;;;;;;1.20;0.70;;;18.20;43.90;;;;;;5094753;28;20503;-65
2022/01/08 04:58:51;;;;;;;2.58;0.93;;;18.20;43.80;;;;;;5096589;28;20019;-63
2022/01/08 05:01:17;;;;;;;2.85;0.90;;;18.20;43.80;;;;;;5096329;28;20356;-64
2022/01/08 05:03:44;;;;;;;1.02;0.70;;;18.20;43.80;;;;;;5096183;28;20066;-64
2022/01/08 05:06:10;;;;;;;1.08;0.70;;;18.20;43.70;;;;;;5096661;28;20136;-65
2022/01/08 05:08:36;;;;;;;1.60;0.80;;;18.20;43.80;;;;;;5096093;28;20051;-65
2022/01/08 05:11:02;;;;;;;1.85;0.90;;;18.20;43.80;;;;;;5095956;28;20016;-65
2022/01/08 05:13:29;;;;;;;2.33;0.82;;;18.20;43.80;;;;;;5096465;28;20013;-65
2022/01/08 05:15:55;;;;;;;1.98;1.05;;;18.20;43.70;;;;;;5096062;28;20440;-64
2022/01/08 05:18:22;;;;;;;1.13;0.70;;;18.20;43.70;;;;;;5095819;28;20564;-65
2022/01/08 05:20:56;;;;;;;1.30;0.77;;;18.20;43.70;;;;;;5096131;28;20051;-64
2022/01/08 05:23:23;;;;;;;1.33;0.70;;;18.20;43.70;;;;;;5095654;28;20036;-64
2022/01/08 05:25:49;;;;;;;2.15;0.95;;;18.20;43.70;;;;;;5095896;28;20022;-65
2022/01/08 05:28:16;;;;;;;1.20;0.80;;;18.20;43.60;;;;;;5095808;28;20020;-64
2022/01/08 05:30:43;;;;;;;1.08;0.80;;;18.20;43.60;;;;;;5095481;28;20027;-64
2022/01/08 05:33:08;;;;;;;1.27;0.77;;;18.30;43.60;;;;;;5095771;28;20039;-65
2022/01/08 05:35:35;;;;;;;1.65;0.85;;;18.30;43.60;;;;;;5094314;28;20449;-65
2022/01/08 05:38:01;;;;;;;1.30;0.85;;;18.30;43.50;;;;;;5095406;28;20028;-65
2022/01/08 05:40:27;;;;;;;1.38;0.90;;;18.30;43.50;;;;;;5095703;28;20048;-64
2022/01/08 05:42:53;;;;;;;2.20;1.10;;;18.30;43.50;;;;;;5094437;28;20017;-65
2022/01/08 05:45:19;;;;;;;4.00;1.00;;;18.30;43.60;;;;;;5095404;28;20013;-65
2022/01/08 05:47:46;;;;;;;1.40;0.80;;;18.30;43.50;;;;;;5095730;28;20052;-64
2022/01/08 05:50:13;;;;;;;1.27;0.73;;;18.30;43.60;;;;;;5095473;28;20016;-64
2022/01/08 05:52:39;;;;;;;1.48;0.80;;;18.30;43.50;;;;;;5095570;28;20020;-64
2022/01/08 05:55:07;;;;;;;1.95;1.00;;;18.30;43.50;;;;;;5095547;28;20016;-63
2022/01/08 05:57:33;;;;;;;2.55;0.90;;;18.30;43.40;;;;;;5095477;28;20087;-64
2022/01/08 06:00:01;;;;;;;0.98;0.60;;;18.30;43.50;;;;;;5095289;28;20083;-65
2022/01/08 06:02:27;;;;;;;1.75;0.93;;;18.30;43.50;;;;;;5095572;28;20157;-65
2022/01/08 06:04:53;;;;;;;1.45;0.70;;;18.30;43.40;;;;;;5095134;28;20087;-64
2022/01/08 06:07:18;;;;;;;1.20;0.73;;;18.30;43.50;;;;;;5094827;28;20093;-64
2022/01/08 06:09:44;;;;;;;1.08;0.70;;;18.30;43.50;;;;;;5094530;28;20494;-64
2022/01/08 06:12:10;;;;;;;0.80;0.60;;;18.30;43.50;;;;;;5094592;28;20024;-64
2022/01/08 06:14:36;;;;;;;1.45;0.82;;;18.30;43.50;;;;;;5095031;28;20018;-64
2022/01/08 06:17:03;;;;;;;1.73;1.08;;;18.30;43.40;;;;;;5094848;28;20377;-64
2022/01/08 06:19:28;;;;;;;1.70;1.00;;;18.30;43.40;;;;;;5094429;28;20474;-63
2022/01/08 06:21:54;;;;;;;1.98;1.05;;;18.30;43.40;;;;;;5093613;28;20062;-65
2022/01/08 06:24:21;;;;;;;1.60;0.90;;;18.30;43.50;;;;;;5094394;28;20020;-62
2022/01/08 06:26:47;;;;;;;1.30;1.00;;;18.30;43.50;;;;;;5094802;28;20012;-63
2022/01/08 06:29:13;;;;;;;1.33;0.80;;;18.30;43.50;;;;;;5092998;28;20421;-62
2022/01/08 06:31:39;;;;;;;1.58;0.93;;;18.30;43.50;;;;;;5094112;28;20020;-64
2022/01/08 06:34:05;;;;;;;1.75;0.82;;;18.30;43.50;;;;;;5094489;28;20073;-62
2022/01/08 06:36:32;;;;;;;1.67;1.00;;;18.40;43.60;;;;;;5094552;28;20035;-62
2022/01/08 06:38:59;;;;;;;1.25;0.75;;;18.30;43.50;;;;;;5094490;28;20032;-64
2022/01/08 06:41:25;;;;;;;1.65;0.82;;;18.30;43.50;;;;;;5094166;28;20053;-63
2022/01/08 06:43:50;;;;;;;1.88;1.05;;;18.30;43.60;;;;;;5094280;28;20011;-63
2022/01/08 06:46:17;;;;;;;0.80;0.70;;;18.40;43.50;;;;;;5094510;28;20016;-63
2022/01/08 06:48:44;;;;;;;1.45;0.80;;;18.40;43.50;;;;;;5094256;28;20020;-64
2022/01/08 06:51:10;;;;;;;1.70;0.70;;;18.40;43.50;;;;;;5094407;28;20016;-63
2022/01/08 06:53:36;;;;;;;1.80;0.80;;;18.40;43.50;;;;;;5093990;28;20023;-62
2022/01/08 06:56:03;;;;;;;1.45;0.75;;;18.40;43.50;;;;;;5094150;28;20029;-64
2022/01/08 06:58:30;;;;;;;3.97;1.00;;;18.40;43.70;;;;;;5093676;28;20525;-64
2022/01/08 07:00:56;;;;;;;1.58;1.00;;;18.40;43.70;;;;;;5093662;28;20023;-63
2022/01/08 07:03:22;;;;;;;1.67;0.82;;;18.40;43.60;;;;;;5093706;28;20020;-64
2022/01/08 07:05:48;;;;;;;1.63;0.88;;;18.40;43.50;;;;;;5093946;28;20048;-64
2022/01/08 07:08:15;;;;;;;3.95;1.10;;;18.50;43.60;;;;;;5093473;28;20059;-64
2022/01/08 07:10:41;;;;;;;2.80;1.10;;;18.50;43.50;;;;;;5093803;28;20030;-63
2022/01/08 07:13:07;;;;;;;1.83;1.00;;;18.50;43.50;;;;;;5094113;28;20049;-64
2022/01/08 07:15:33;;;;;;;2.17;0.80;;;18.40;43.50;;;;;;5095537;28;20016;-64
2022/01/08 07:18:00;;;;;;;2.03;1.00;;;18.40;43.60;;;;;;5095274;28;20036;-64
2022/01/08 07:20:26;;;;;;;1.27;0.80;;;18.40;43.60;;;;;;5095123;28;20020;-64
2022/01/08 07:22:51;;;;;;;1.67;1.00;;;18.40;43.60;;;;;;5095006;28;20020;-63
2022/01/08 07:25:17;;;;;;;1.10;0.70;;;18.40;43.50;;;;;;5093701;28;20024;-63
2022/01/08 07:27:43;;;;;;;1.75;1.00;;;18.50;43.50;;;;;;5094646;28;20055;-64
2022/01/08 07:30:09;;;;;;;1.50;0.98;;;18.50;43.50;;;;;;5093146;28;20024;-63
2022/01/08 07:32:46;;;;;;;1.13;0.70;;;18.50;43.50;;;;;;5094114;28;20016;-63
2022/01/08 07:35:14;;;;;;;3.65;1.10;;;18.50;43.60;;;;;;5094032;28;20527;-64
2022/01/08 07:37:40;;;;;;;3.05;1.17;;;18.50;43.60;;;;;;5094681;28;20054;-63
2022/01/08 07:40:08;;;;;;;1.35;0.90;;;18.50;43.50;;;;;;5094530;28;20019;-63
2022/01/08 07:42:35;;;;;;;0.88;0.60;;;18.50;43.50;;;;;;5094519;28;20471;-64
2022/01/08 07:45:01;;;;;;;2.20;0.90;;;18.50;43.50;;;;;;5094275;28;20024;-63
2022/01/08 07:47:27;;;;;;;1.40;0.80;;;18.50;43.50;;;;;;5093601;28;20062;-63
2022/01/08 07:49:53;;;;;;;1.85;0.98;;;18.50;43.60;;;;;;5093563;28;20024;-63
2022/01/08 07:52:19;;;;;;;2.92;1.00;;;18.50;43.60;;;;;;5093823;28;20456;-63
2022/01/08 07:54:45;;;;;;;1.50;0.80;;;18.50;43.60;;;;;;5093672;28;20064;-63
2022/01/08 07:57:11;;;;;;;1.55;0.90;;;18.50;43.70;;;;;;5092598;28;20074;-63
2022/01/08 07:59:37;;;;;;;1.27;0.88;;;18.50;43.60;;;;;;5093926;28;20012;-63
2022/01/08 08:02:04;;;;;;;0.70;0.60;;;18.50;43.70;;;;;;5093286;28;20478;-63
2022/01/08 08:04:31;;;;;;;1.30;0.73;;;18.50;43.60;;;;;;5093132;28;20100;-63
2022/01/08 08:06:57;;;;;;;1.48;0.95;;;18.50;43.60;;;;;;5092831;28;20084;-63
2022/01/08 08:09:24;;;;;;;2.40;0.95;;;18.50;43.60;;;;;;5092980;28;20078;-64
2022/01/08 08:11:51;;;;;;;1.00;0.70;;;18.60;43.60;;;;;;5093198;28;20027;-63
2022/01/08 08:14:17;;;;;;;1.25;0.90;;;18.50;43.60;;;;;;5092843;28;20016;-63
2022/01/08 08:16:44;;;;;;;1.35;0.80;;;18.60;43.70;;;;;;5092779;28;20024;-63
2022/01/08 08:19:10;;;;;;;1.42;0.90;;;18.60;43.60;;;;;;5093192;28;20459;-62
2022/01/08 08:21:36;;;;;;;1.33;0.85;;;18.50;43.60;;;;;;5092986;28;20032;-63
2022/01/08 08:24:05;;;;;;;1.85;0.88;;;18.60;43.60;;;;;;5093298;28;20059;-63
2022/01/08 08:26:35;;;;;;;1.52;1.00;;;18.60;43.60;;;;;;5093304;28;20485;-63
2022/01/08 08:29:01;;;;;;;1.35;0.80;;;18.60;43.60;;;;;;5093560;28;20050;-63
2022/01/08 08:31:27;;;;;;;0.93;0.60;;;18.60;43.60;;;;;;5092167;28;20024;-63
2022/01/08 08:33:53;;;;;;;1.33;0.77;;;18.60;43.60;;;;;;5092956;28;20090;-63
2022/01/08 08:36:19;;;;;;;1.88;0.90;;;18.60;43.60;;;;;;5093086;28;20146;-63
2022/01/08 08:38:46;;;;;;;0.82;0.50;;;18.60;43.60;;;;;;5092849;28;20466;-63
2022/01/08 08:41:12;;;;;;;1.17;0.80;;;18.60;43.60;;;;;;5092947;28;20085;-63
2022/01/08 08:43:38;;;;;;;1.38;0.80;;;18.60;43.50;;;;;;5093392;28;20093;-63
2022/01/08 08:46:04;;;;;;;0.90;0.80;;;18.60;43.50;;;;;;5096770;28;20031;-63
2022/01/08 08:48:31;;;;;;;1.75;1.15;;;18.60;43.40;;;;;;5096686;28;20040;-63
2022/01/08 08:50:56;;;;;;;1.35;0.70;;;18.70;43.50;;;;;;5096770;28;20020;-62
2022/01/08 08:53:23;;;;;;;2.80;0.70;;;18.70;43.50;;;;;;5096874;28;20020;-63
2022/01/08 08:55:49;;;;;;;1.27;0.70;;;18.70;43.40;;;;;;5095917;28;20024;-64
2022/01/08 08:58:15;;;;;;;1.80;1.00;;;18.70;43.50;;;;;;5095447;28;20547;-64
2022/01/08 09:00:42;;;;;;;1.30;0.75;;;18.70;43.50;;;;;;5097792;28;20065;-63
2022/01/08 09:03:08;;;;;;;1.40;0.70;;;18.70;43.50;;;;;;5098207;28;20013;-63
2022/01/08 09:05:33;;;;;;;1.20;0.85;;;18.70;43.50;;;;;;5098140;28;20020;-63
2022/01/08 09:08:00;;;;;;;1.30;0.70;;;18.60;43.50;;;;;;5098085;28;20048;-63
2022/01/08 09:10:25;;;;;;;2.33;1.00;;;18.60;43.50;;;;;;5098429;28;20091;-64
2022/01/08 09:12:52;;;;;;;1.33;0.88;;;18.70;43.60;;;;;;5097697;28;20024;-63
2022/01/08 09:15:22;;;;;;;1.20;0.80;;;18.70;43.50;;;;;;5097281;28;20020;-63
2022/01/08 09:17:49;;;;;;;1.00;0.60;;;18.70;43.60;;;;;;5096267;28;20568;-63
2022/01/08 09:20:14;;;;;;;1.45;0.85;;;18.60;43.50;;;;;;5096372;28;20028;-63
2022/01/08 09:22:41;;;;;;;0.90;0.60;;;18.70;43.60;;;;;;5096260;28;20501;-63
2022/01/08 09:25:07;;;;;;;1.60;0.60;;;18.70;43.60;;;;;;5095067;28;20052;-63
2022/01/08 09:27:33;;;;;;;1.20;0.77;;;18.70;43.60;;;;;;5096725;28;20083;-63
2022/01/08 09:29:59;;;;;;;0.93;0.75;;;18.70;43.50;;;;;;5096869;28;20482;-63
2022/01/08 09:32:25;;;;;;;1.55;0.80;;;18.70;43.50;;;;;;5096684;28;20474;-63
2022/01/08 09:34:51;;;;;;;1.08;0.70;;;18.70;43.50;;;;;;5097336;28;20050;-63
2022/01/08 09:37:17;;;;;;;1.38;0.80;;;18.70;43.50;;;;;;5097657;28;20077;-63
2022/01/08 09:39:44;;;;;;;0.95;0.85;;;18.70;43.50;;;;;;5098688;28;20027;-63
2022/01/08 09:42:10;;;;;;;1.02;0.57;;;18.70;43.50;;;;;;5097534;28;20390;-63
2022/01/08 09:44:37;;;;;;;1.05;0.70;;;18.70;43.40;;;;;;5096369;28;20065;-63
2022/01/08 09:47:04;;;;;;;2.78;0.82;;;18.80;43.50;;;;;;5095735;28;20145;-63
2022/01/08 09:49:30;;;;;;;0.88;0.68;;;18.80;43.50;;;;;;5095754;28;20016;-63
2022/01/08 09:51:56;;;;;;;1.73;0.80;;;18.80;43.50;;;;;;5095884;28;20022;-63
2022/01/08 09:54:24;;;;;;;2.28;1.00;;;18.80;43.50;;;;;;5095504;28;20020;-63
2022/01/08 09:56:51;;;;;;;1.63;0.90;;;18.80;43.50;;;;;;5093342;28;20036;-62
2022/01/08 09:59:16;;;;;;;1.20;0.75;;;18.80;43.50;;;;;;5077359;28;20058;-63
2022/01/08 10:01:43;;;;;;;1.63;0.80;;;18.80;43.40;;;;;;5096916;28;20485;-63
2022/01/08 10:04:08;;;;;;;0.73;0.60;;;18.80;43.50;;;;;;5078312;28;20016;-62
2022/01/08 10:06:35;;;;;;;1.48;0.75;;;18.80;43.50;;;;;;5095423;28;20479;-63
2022/01/08 10:09:01;;;;;;;1.25;0.80;;;18.80;43.50;;;;;;5096588;28;20070;-63
2022/01/08 10:11:28;;;;;;;1.35;0.82;;;18.80;43.50;;;;;;5096372;28;20376;-62
2022/01/08 10:14:03;;;;;;;0.85;0.57;;;18.80;43.50;;;;;;5096559;28;20012;-62
2022/01/08 10:19:21;;;;;;;3.97;0.63;;;18.80;43.50;;;;;;5094819;28;20023;-62
2022/01/08 10:21:48;;;;;;;1.35;0.80;;;18.80;43.50;;;;;;5094731;28;20040;-62
2022/01/08 10:24:18;;;;;;;1.42;0.80;;;18.80;43.40;;;;;;5094725;28;20091;-63
2022/01/08 10:26:45;;;;;;;1.40;0.80;;;18.80;43.40;;;;;;5094493;28;20117;-64
2022/01/08 10:29:12;;;;;;;1.40;0.80;;;18.80;43.40;;;;;;5094686;28;20282;-64
2022/01/08 10:31:39;;;;;;;1.13;0.60;;;18.80;43.50;;;;;;5094244;28;20019;-63
2022/01/08 10:34:14;;;;;;;1.58;0.80;;;18.80;43.50;;;;;;5094221;28;20028;-64
2022/01/08 10:36:57;;;;;;;1.35;0.75;;;18.80;43.50;;;;;;5094501;28;20042;-65
2022/01/08 10:39:29;;;;;;;1.15;0.80;;;18.80;43.40;;;;;;5094462;28;20020;-63
2022/01/08 10:41:56;;;;;;;1.25;0.73;;;18.80;43.40;;;;;;5094156;28;20060;-63
2022/01/08 10:44:23;;;;;;;1.25;0.70;;;18.80;43.50;;;;;;5094456;28;20015;-63
2022/01/08 10:46:59;;;;;;;1.77;0.80;;;18.80;43.50;;;;;;5094716;28;20034;-63
2022/01/08 10:49:34;;;;;;;1.40;0.80;;;18.90;43.40;;;;;;5095074;28;20016;-64
2022/01/08 10:52:14;;;;;;;1.35;0.85;;;18.90;43.40;;;;;;5094783;28;20016;-63
2022/01/08 10:54:44;;;;;;;1.35;0.77;;;18.80;43.40;;;;;;5094726;28;20012;-63
2022/01/08 10:57:12;;;;;;;1.08;0.68;;;18.90;43.40;;;;;;5094552;28;20414;-63
2022/01/08 10:59:38;;;;;;;0.85;0.70;;;18.90;43.40;;;;;;5094795;28;20039;-63
2022/01/08 11:02:14;;;;;;;1.35;0.70;;;18.90;43.50;;;;;;5094729;28;20071;-63
2022/01/08 11:04:46;;;;;;;1.42;0.70;;;18.90;43.50;;;;;;5094109;28;20020;-63
2022/01/08 11:07:22;;;;;;;0.60;0.57;;;18.80;43.50;;;;;;5094074;28;20019;-63
2022/01/08 11:09:55;;;;;;;1.52;0.90;;;18.80;43.50;;;;;;5094024;28;20391;-63
2022/01/08 11:12:28;;;;;;;1.25;0.70;;;18.90;43.50;;;;;;5092884;28;20052;-63
2022/01/08 11:17:20;;;;;;;1.35;0.80;;;18.80;43.50;;;;;;5094475;28;20024;-63
2022/01/08 11:20:02;;;;;;;2.20;0.88;;;18.90;43.50;;;;;;5094153;28;20020;-63
2022/01/08 11:22:30;;;;;;;0.98;0.60;;;18.90;43.50;;;;;;5094201;28;20065;-63
2022/01/08 11:25:03;;;;;;;0.90;0.75;;;18.90;43.50;;;;;;5094411;28;20138;-63
2022/01/08 11:27:32;;;;;;;0.93;0.60;;;18.90;43.40;;;;;;5094131;28;20046;-63
2022/01/08 11:30:07;;;;;;;1.50;0.70;;;18.90;43.60;;;;;;5093789;28;20031;-63
2022/01/08 11:32:34;;;;;;;0.90;0.70;;;18.90;43.40;;;;;;5094512;28;20012;-64
2022/01/08 11:35:00;;;;;;;1.35;0.77;;;18.90;43.40;;;;;;5076151;28;20069;-63
2022/01/08 11:37:26;;;;;;;1.00;0.75;;;18.90;43.40;;;;;;5094897;28;20095;-63
2022/01/08 11:39:53;;;;;;;1.42;0.85;;;18.90;43.50;;;;;;5094305;28;20540;-63
2022/01/08 11:42:22;;;;;;;1.45;0.80;;;18.90;43.50;;;;;;5094115;28;20100;-63
2022/01/08 11:44:49;;;;;;;1.73;0.90;;;18.90;43.30;;;;;;5094274;28;20016;-63
2022/01/08 11:47:16;;;;;;;1.55;0.73;;;19.00;43.40;;;;;;5094675;28;20035;-63
2022/01/08 11:49:42;;;;;;;0.70;0.50;;;18.90;43.30;;;;;;5092910;28;20042;-63
2022/01/08 11:52:19;;;;;;;0.70;0.57;;;19.00;43.40;;;;;;5075615;28;20025;-63
2022/01/08 11:54:45;;;;;;;0.80;0.65;;;18.90;43.30;;;;;;5093008;28;20107;-62
2022/01/08 11:57:20;;;;;;;1.63;0.75;;;19.00;43.30;;;;;;5093803;28;20024;-62
2022/01/08 11:59:47;;;;;;;1.40;0.80;;;19.00;43.40;;;;;;5093772;28;20012;-63
2022/01/08 12:02:13;;;;;;;1.75;0.90;;;18.90;43.40;;;;;;5093319;28;20004;-63
2022/01/08 12:04:41;;;;;;;2.25;0.75;;;18.90;43.40;;;;;;5091922;28;20062;-63
2022/01/08 12:07:33;;;;;;;2.20;0.60;;;18.90;43.30;;;;;;5093223;28;20021;-62
2022/01/08 12:10:11;;;;;;;1.65;0.88;;;19.00;43.40;;;;;;5093364;28;20119;-63
2022/01/08 12:12:43;;;;;;;0.95;0.80;;;18.90;43.30;;;;;;5093431;28;20016;-62
2022/01/08 12:15:09;;;;;;;1.33;0.90;;;19.00;43.40;;;;;;5093234;28;20016;-62
2022/01/08 12:17:51;;;;;;;1.38;0.73;;;19.00;43.40;;;;;;5091895;28;20046;-62
2022/01/08 12:20:40;;;;;;;1.27;0.80;;;19.00;43.40;;;;;;5095409;28;20087;-62
2022/01/08 12:23:30;;;;;;;2.70;0.70;;;19.00;43.30;;;;;;5095790;28;20016;-64
2022/01/08 12:25:56;;;;;;;0.68;0.60;;;19.00;43.40;;;;;;5096910;28;20534;-64
2022/01/08 12:28:42;;;;;;;0.85;0.70;;;19.00;43.40;;;;;;5079032;28;20548;-64
2022/01/08 12:31:28;;;;;;;1.05;0.70;;;19.00;43.40;;;;;;5097057;28;20030;-64
2022/01/08 12:34:19;;;;;;;1.13;0.70;;;19.00;43.40;;;;;;5096719;28;20020;-64
2022/01/08 12:36:54;;;;;;;1.00;0.70;;;19.00;43.40;;;;;;5096684;28;20032;-64
2022/01/08 12:39:52;;;;;;;2.15;0.73;;;19.00;43.40;;;;;;5096811;28;20442;-64
2022/01/08 12:42:25;;;;;;;0.70;0.50;;;19.00;43.40;;;;;;5093919;28;20029;-63
2022/01/08 12:45:11;;;;;;;1.23;0.80;;;19.00;43.40;;;;;;5096502;28;20024;-63
2022/01/08 12:48:01;;;;;;;0.68;0.60;;;19.00;43.40;;;;;;5096933;28;20032;-64
2022/01/08 12:50:51;;;;;;;1.00;0.60;;;19.00;43.90;;;;;;5097939;28;20020;-63
2022/01/08 12:53:25;;;;;;;0.82;0.80;;;19.00;43.40;;;;;;5098467;28;20020;-64
2022/01/08 12:55:53;;;;;;;0.82;0.52;;;19.00;43.40;;;;;;5098231;28;20020;-63
2022/01/08 12:58:26;;;;;;;0.90;0.60;;;19.00;43.40;;;;;;5097645;28;20086;-63
2022/01/08 13:01:02;;;;;;;2.10;0.90;;;19.00;43.40;;;;;;5096677;28;20015;-64
2022/01/08 13:03:30;;;;;;;1.17;0.70;;;19.00;43.50;;;;;;5097452;28;20012;-63
2022/01/08 13:05:58;;;;;;;1.23;0.75;;;19.00;43.50;;;;;;5097332;28;20016;-63
2022/01/08 13:08:31;;;;;;;0.80;0.80;;;19.00;43.50;;;;;;5095384;28;20040;-63
2022/01/08 13:11:02;;;;;;;1.08;0.70;;;19.00;43.50;;;;;;5096934;28;20040;-63
2022/01/08 13:14:16;;;;;;;1.27;0.70;;;18.90;43.50;;;;;;5096474;28;20095;-62
2022/01/08 13:17:01;;;;;;;1.02;0.70;;;19.00;43.50;;;;;;5073632;28;20049;-63